Grandy, MN (55029)

3:30 PM CDT on July 23, 2016 (GMT -0500)
Spectacle Lake, Isanti County, Minnesota | | Change Station

Elev 932 ft 45.57 °N, 93.41 °W | Updated 4 minutes ago

Heavy Thunderstorms and Rain
Heavy Thunderstorm Rain
70.9 °F
Feels Like 70.9 °F
N
5.0
Wind Variable Wind from SE
Gusts 5.0 mph

Today
High -- | Low -- °F
--% Chance of Precip.
Yesterday
High -- | Low -- °F
Precip. -- in
Pressure 29.88 in
Visibility 2.0 miles
Clouds Mostly Cloudy 600 ft
Mostly Cloudy 2400 ft
Overcast 3300 ft
Dew Point 69 °F
Humidity 95%
Rainfall 0.33 in
Snow Depth Not available.
5:47 AM 8:51 PM
Waning Gibbous, 83% visible
METAR KCBG 232016Z AUTO 00000KT 2SM +TSRA BKN006 BKN024 OVC033 23/19 A2988 RMK AO2 LTG DSNT S THRU W
Pressure 29.88 in
Visibility 2.0 miles
Clouds Mostly Cloudy 600 ft
Mostly Cloudy 2400 ft
Overcast 3300 ft
Dew Point 69 °F
Humidity 95%
Rainfall 0.33 in
Snow Depth Not available.
5:47 AM 8:51 PM
Waning Gibbous, 83% visible
METAR KCBG 232016Z AUTO 00000KT 2SM +TSRA BKN006 BKN024 OVC033 23/19 A2988 RMK AO2 LTG DSNT S THRU W

10-Day Weather Forecast

Almanac

Astronomy

Jul. 23, 2016 Rise Set
Actual Time
Civil Twilight
Nautical Twilight
Astronomical Twilight
Moon
Length of Visible Light
Length of Day
Tomorrow will be .
, % of the Moon is Illuminated

Today's Extremes

State Highs State Lows

Community

WunderPhotos

Upload Photos

1,926,916 photos uploaded!

WunderBlog® & News

Nearby

Air Quality

  Air Quality AQ Index Pollutant
Not available.

Snow Depth

Station Depth Elevation

Earthquake Activity

City Distance Mag. Time & Date
Minimum magnitude displayed is 2.5.

Coastal Water Temperatures

Place Temperature

Stations

Nearby Weather Stations

Station Location Temp. Windchill Dew Point Humidity Wind Precip. Elev Updated Type
                   

Watches & Warnings

Flash Flood Watch
Issued: 5:13 AM CDT Jul. 23, 2016 – National Weather Service

... Flash Flood Watch remains in effect from noon CDT today
through Sunday morning...

The Flash Flood Watch continues for

* portions of Minnesota and northwest Wisconsin... including the
following areas... in Minnesota... Benton... Chisago... Isanti...
Kanabec... Mille Lacs and Morrison counties. In northwest
Wisconsin... Barron... Polk and Rusk counties.

* From noon CDT today through Sunday morning

* recent heavy rainfall... combined with the potential of high
rainfall rates expected during this upcoming event... will lead
to an increase the flooding threat in the watch area.

Precautionary/preparedness actions...

A Flash Flood Watch means that conditions may develop that lead
to flash flooding. Flash flooding is a very dangerous situation.

You should monitor later forecasts and be prepared to take action
should flash flood warnings be issued.